Time;durP1;ratioP1;P1;durP2;ratioP2;P2;SDS_P1;SDS_P2;PMS_P1;PMS_P2;Temp;Humidity;BMP_temperature;BMP_pressure;BME280_temperature;BME280_humidity;BME280_pressure;Samples;Min_cycle;Max_cycle;Signal;HPM_P1;HPM_P2
2022/08/18 00:02:00;;;;;;;;;9.75;8.50;;;;;;;;5103129;27;62040;-75
2022/08/18 00:04:26;;;;;;;;;10.75;7.25;;;;;;;;5102435;27;62102;-75
2022/08/18 00:06:51;;;;;;;;;10.75;9.75;;;;;;;;5101510;27;61829;-74
2022/08/18 00:09:16;;;;;;;;;11.50;7.75;;;;;;;;5103246;27;61968;-75
2022/08/18 00:11:42;;;;;;;;;13.25;9.50;;;;;;;;5104633;27;62181;-75
2022/08/18 00:14:13;;;;;;;;;8.25;8.00;;;;;;;;5104719;27;64984;-75
2022/08/18 00:16:38;;;;;;;;;10.50;9.00;;;;;;;;5106036;27;61919;-74
2022/08/18 00:19:04;;;;;;;;;11.00;7.25;;;;;;;;5105075;27;61798;-74
2022/08/18 00:21:29;;;;;;;;;9.00;8.00;;;;;;;;5106570;27;61807;-75
2022/08/18 00:23:54;;;;;;;;;8.25;7.25;;;;;;;;5105621;27;61907;-75
2022/08/18 00:26:20;;;;;;;;;11.50;9.00;;;;;;;;5104592;27;62143;-75
2022/08/18 00:28:45;;;;;;;;;10.25;8.50;;;;;;;;5104851;27;61902;-75
2022/08/18 00:31:10;;;;;;;;;10.75;8.25;;;;;;;;5106078;27;61752;-74
2022/08/18 00:33:36;;;;;;;;;10.00;8.33;;;;;;;;5105860;27;62112;-74
2022/08/18 00:36:01;;;;;;;;;9.25;7.75;;;;;;;;5106236;27;62044;-75
2022/08/18 00:38:27;;;;;;;;;8.00;7.00;;;;;;;;5106327;27;61782;-74
2022/08/18 00:40:53;;;;;;;;;8.50;6.00;;;;;;;;5105856;27;61725;-74
2022/08/18 00:43:22;;;;;;;;;11.75;7.50;;;;;;;;5105372;27;61724;-75
2022/08/18 00:45:47;;;;;;;;;9.50;6.50;;;;;;;;5094516;27;62022;-75
2022/08/18 00:48:13;;;;;;;;;7.75;7.75;;;;;;;;5106176;27;61746;-75
2022/08/18 00:50:41;;;;;;;;;6.75;6.75;;;;;;;;5106460;27;61790;-74
2022/08/18 00:53:13;;;;;;;;;10.00;9.25;;;;;;;;5104948;27;63083;-75
2022/08/18 00:55:40;;;;;;;;;9.00;8.00;;;;;;;;5105602;27;61952;-75
2022/08/18 00:58:10;;;;;;;;;7.00;7.00;;;;;;;;5104612;27;61921;-74
2022/08/18 01:00:36;;;;;;;;;8.00;8.00;;;;;;;;5105667;27;61841;-75
2022/08/18 01:03:06;;;;;;;;;9.75;8.50;;;;;;;;5103985;27;63566;-74
2022/08/18 01:05:39;;;;;;;;;10.25;9.00;;;;;;;;5105411;27;61775;-75
2022/08/18 01:08:09;;;;;;;;;9.00;8.25;;;;;;;;5105723;27;61758;-75
2022/08/18 01:10:35;;;;;;;;;9.25;8.25;;;;;;;;5105813;27;61827;-74
2022/08/18 01:13:00;;;;;;;;;9.50;8.00;;;;;;;;5103465;27;62480;-74
2022/08/18 01:15:26;;;;;;;;;12.00;10.00;;;;;;;;5104959;27;62101;-75
2022/08/18 01:23:24;;;;;;;;;8.00;8.00;;;;;;;;5103875;27;61961;-75
2022/08/18 01:25:59;;;;;;;;;10.00;7.25;;;;;;;;5105314;27;62089;-75
2022/08/18 01:28:26;;;;;;;;;8.75;8.00;;;;;;;;5105019;27;61814;-75
2022/08/18 01:30:59;;;;;;;;;10.75;8.00;;;;;;;;5105691;27;62193;-75
2022/08/18 01:33:26;;;;;;;;;12.00;8.00;;;;;;;;5104688;27;62052;-75
2022/08/18 01:35:52;;;;;;;;;9.50;9.50;;;;;;;;5105193;27;61706;-75
2022/08/18 01:38:18;;;;;;;;;10.25;8.50;;;;;;;;5104234;27;61883;-75
2022/08/18 01:40:45;;;;;;;;;6.50;6.25;;;;;;;;5105368;27;62156;-75
2022/08/18 01:43:10;;;;;;;;;10.00;8.50;;;;;;;;5102290;27;63973;-74
2022/08/18 01:45:36;;;;;;;;;7.00;6.50;;;;;;;;5094906;27;61719;-74
2022/08/18 01:48:03;;;;;;;;;11.25;8.50;;;;;;;;5105401;27;61770;-74
2022/08/18 01:50:29;;;;;;;;;8.50;6.50;;;;;;;;5103902;27;62195;-75
2022/08/18 01:52:54;;;;;;;;;13.00;7.75;;;;;;;;5104489;27;61835;-74
2022/08/18 01:55:19;;;;;;;;;7.75;7.75;;;;;;;;5104387;27;61801;-74
2022/08/18 01:57:45;;;;;;;;;6.75;5.75;;;;;;;;5104347;27;62005;-75
2022/08/18 02:00:12;;;;;;;;;5.75;5.75;;;;;;;;5103723;27;61775;-75
2022/08/18 02:02:38;;;;;;;;;8.00;6.50;;;;;;;;5102862;27;64877;-74
2022/08/18 02:05:09;;;;;;;;;10.25;9.00;;;;;;;;5105064;27;61915;-75
2022/08/18 02:07:35;;;;;;;;;9.00;8.00;;;;;;;;5103086;27;61927;-75
2022/08/18 02:10:01;;;;;;;;;7.75;6.50;;;;;;;;5105045;27;61773;-74
2022/08/18 02:12:26;;;;;;;;;8.75;8.75;;;;;;;;5103712;27;62571;-74
2022/08/18 02:14:52;;;;;;;;;8.00;7.50;;;;;;;;5103273;27;61842;-75
2022/08/18 02:17:17;;;;;;;;;9.00;6.50;;;;;;;;5103351;27;61816;-74
2022/08/18 02:19:44;;;;;;;;;6.50;4.75;;;;;;;;5104879;27;61610;-74
2022/08/18 02:22:11;;;;;;;;;7.00;6.25;;;;;;;;5104098;27;62001;-74
2022/08/18 02:24:36;;;;;;;;;8.25;7.50;;;;;;;;5103793;27;61720;-75
2022/08/18 02:27:02;;;;;;;;;8.75;5.75;;;;;;;;5103733;27;61904;-74
2022/08/18 02:29:27;;;;;;;;;6.00;6.00;;;;;;;;5104464;27;62252;-75
2022/08/18 02:31:52;;;;;;;;;5.25;5.25;;;;;;;;5104025;27;61946;-74
2022/08/18 02:34:18;;;;;;;;;6.25;6.25;;;;;;;;5102033;27;61899;-75
2022/08/18 02:36:43;;;;;;;;;8.00;6.50;;;;;;;;5104353;27;62076;-74
2022/08/18 02:39:09;;;;;;;;;9.00;8.00;;;;;;;;5104627;27;61929;-75
2022/08/18 02:41:35;;;;;;;;;6.50;4.75;;;;;;;;5101060;27;64038;-75
2022/08/18 02:44:01;;;;;;;;;10.75;6.00;;;;;;;;5103841;27;61907;-74
2022/08/18 02:46:26;;;;;;;;;7.00;7.00;;;;;;;;5094865;27;61858;-75
2022/08/18 02:48:52;;;;;;;;;6.00;5.00;;;;;;;;5104295;27;62129;-74
2022/08/18 02:51:18;;;;;;;;;8.50;5.50;;;;;;;;5103582;27;61805;-75
2022/08/18 02:53:44;;;;;;;;;11.00;7.00;;;;;;;;5102286;27;61767;-75
2022/08/18 02:56:23;;;;;;;;;9.00;6.00;;;;;;;;5103493;27;61837;-75
2022/08/18 02:58:53;;;;;;;;;8.75;8.00;;;;;;;;5103911;27;61812;-75
2022/08/18 03:01:20;;;;;;;;;6.75;6.75;;;;;;;;5103445;27;61943;-74
2022/08/18 03:03:46;;;;;;;;;8.00;6.25;;;;;;;;5102604;27;61998;-75
2022/08/18 03:06:11;;;;;;;;;6.00;5.00;;;;;;;;5102385;27;61991;-74
2022/08/18 03:08:37;;;;;;;;;9.50;6.25;;;;;;;;5104132;27;61916;-74
2022/08/18 03:11:02;;;;;;;;;6.75;6.50;;;;;;;;5102560;27;61954;-75
2022/08/18 03:13:29;;;;;;;;;10.25;7.00;;;;;;;;5102089;27;61947;-75
2022/08/18 03:15:54;;;;;;;;;9.75;4.25;;;;;;;;5102385;27;62051;-74
2022/08/18 03:18:21;;;;;;;;;8.75;5.00;;;;;;;;5104012;27;61807;-74
2022/08/18 03:20:46;;;;;;;;;5.00;4.25;;;;;;;;5103108;27;61942;-74
2022/08/18 03:23:11;;;;;;;;;5.75;5.75;;;;;;;;5103228;27;61797;-75
2022/08/18 03:25:47;;;;;;;;;8.25;5.75;;;;;;;;5103260;27;61998;-75
2022/08/18 03:28:12;;;;;;;;;5.50;4.50;;;;;;;;5102039;27;61724;-75
2022/08/18 03:30:38;;;;;;;;;6.25;5.75;;;;;;;;5101687;27;63612;-74
2022/08/18 03:33:03;;;;;;;;;13.75;7.00;;;;;;;;5102248;27;61906;-74
2022/08/18 03:35:29;;;;;;;;;7.25;5.75;;;;;;;;5103741;27;61753;-74
2022/08/18 03:37:57;;;;;;;;;6.75;6.25;;;;;;;;5103482;27;62030;-74
2022/08/18 03:40:23;;;;;;;;;7.75;5.50;;;;;;;;5102479;27;61973;-75
2022/08/18 03:42:48;;;;;;;;;8.00;6.25;;;;;;;;5101466;27;61958;-74
2022/08/18 03:45:13;;;;;;;;;7.25;5.50;;;;;;;;5101446;27;61954;-75
2022/08/18 03:47:39;;;;;;;;;5.50;5.50;;;;;;;;5103409;27;61974;-75
2022/08/18 03:50:04;;;;;;;;;5.25;4.25;;;;;;;;5102731;27;63013;-74
2022/08/18 03:52:29;;;;;;;;;4.00;4.00;;;;;;;;5103188;27;61848;-75
2022/08/18 03:54:55;;;;;;;;;9.00;6.00;;;;;;;;5102498;27;61713;-74
2022/08/18 03:57:20;;;;;;;;;4.00;4.00;;;;;;;;5101705;27;61918;-75
2022/08/18 03:59:45;;;;;;;;;4.50;4.50;;;;;;;;5101016;27;63764;-75
2022/08/18 04:02:11;;;;;;;;;6.50;5.50;;;;;;;;5101845;27;61826;-75
2022/08/18 04:04:36;;;;;;;;;6.50;6.50;;;;;;;;5103067;27;61892;-75
2022/08/18 04:07:06;;;;;;;;;8.50;5.00;;;;;;;;5101834;27;62056;-75
2022/08/18 04:09:32;;;;;;;;;3.50;3.50;;;;;;;;5102272;27;63050;-75
2022/08/18 04:12:01;;;;;;;;;5.00;5.00;;;;;;;;5100842;27;62098;-74
2022/08/18 04:14:30;;;;;;;;;5.50;5.00;;;;;;;;5103077;27;61815;-74
2022/08/18 04:16:56;;;;;;;;;5.50;5.50;;;;;;;;5101531;27;62164;-74
2022/08/18 04:19:21;;;;;;;;;8.75;6.25;;;;;;;;5102708;27;62083;-74
2022/08/18 04:21:50;;;;;;;;;4.50;4.50;;;;;;;;5102803;27;61869;-74
2022/08/18 04:24:16;;;;;;;;;6.00;5.25;;;;;;;;5102082;27;61904;-74
2022/08/18 04:26:44;;;;;;;;;6.00;6.00;;;;;;;;5101174;27;61875;-74
2022/08/18 04:29:10;;;;;;;;;6.50;6.50;;;;;;;;5102378;27;61896;-74
2022/08/18 04:31:36;;;;;;;;;7.25;5.25;;;;;;;;5102707;27;61935;-74
2022/08/18 04:34:02;;;;;;;;;8.75;6.75;;;;;;;;5102895;27;61869;-75
2022/08/18 04:36:28;;;;;;;;;7.75;7.25;;;;;;;;5101123;27;61997;-75
2022/08/18 04:38:57;;;;;;;;;6.75;6.00;;;;;;;;5100344;27;63980;-74
2022/08/18 04:41:26;;;;;;;;;10.75;7.25;;;;;;;;5102224;27;62025;-75
2022/08/18 04:44:07;;;;;;;;;7.75;5.75;;;;;;;;5102764;27;61855;-75
2022/08/18 04:46:38;;;;;;;;;6.25;6.25;;;;;;;;5094355;27;61891;-74
2022/08/18 04:49:03;;;;;;;;;7.00;7.00;;;;;;;;5100472;27;64617;-74
2022/08/18 04:51:29;;;;;;;;;5.75;5.75;;;;;;;;5100709;27;61837;-75
2022/08/18 04:53:54;;;;;;;;;8.50;5.50;;;;;;;;5102229;27;61912;-75
2022/08/18 04:56:32;;;;;;;;;9.00;5.75;;;;;;;;5102286;27;61690;-75
2022/08/18 04:58:57;;;;;;;;;9.00;6.25;;;;;;;;5105123;27;62185;-74
2022/08/18 05:01:24;;;;;;;;;7.50;7.00;;;;;;;;5104344;27;61820;-74
2022/08/18 05:03:50;;;;;;;;;7.50;7.00;;;;;;;;5106119;27;61705;-74
2022/08/18 05:06:16;;;;;;;;;11.00;8.25;;;;;;;;5104159;27;61783;-75
2022/08/18 05:08:41;;;;;;;;;7.75;5.50;;;;;;;;5105402;27;63158;-75
2022/08/18 05:11:07;;;;;;;;;12.00;6.00;;;;;;;;5105329;27;61773;-74
2022/08/18 05:13:32;;;;;;;;;9.00;6.75;;;;;;;;5105813;27;61735;-75
2022/08/18 05:16:02;;;;;;;;;8.25;6.00;;;;;;;;5104358;27;62015;-74
2022/08/18 05:18:28;;;;;;;;;8.00;7.00;;;;;;;;5103941;27;63816;-74
2022/08/18 05:20:54;;;;;;;;;5.75;5.75;;;;;;;;5104616;27;61683;-74
2022/08/18 05:23:20;;;;;;;;;7.50;7.50;;;;;;;;5103983;27;61781;-75
2022/08/18 05:25:46;;;;;;;;;6.00;6.00;;;;;;;;5105852;27;61666;-74
2022/08/18 05:28:13;;;;;;;;;12.75;9.50;;;;;;;;5102764;27;63557;-74
2022/08/18 05:30:39;;;;;;;;;8.25;8.25;;;;;;;;5105540;27;61839;-75
2022/08/18 05:33:05;;;;;;;;;7.00;6.00;;;;;;;;5105169;27;61796;-75
2022/08/18 05:35:41;;;;;;;;;7.25;6.00;;;;;;;;5105189;27;61946;-75
2022/08/18 05:38:14;;;;;;;;;7.00;7.00;;;;;;;;5104628;27;61853;-76
2022/08/18 05:40:39;;;;;;;;;6.50;6.50;;;;;;;;5105159;27;61974;-75
2022/08/18 05:43:05;;;;;;;;;6.00;6.00;;;;;;;;5102352;27;62229;-75
2022/08/18 05:45:33;;;;;;;;;10.25;8.50;;;;;;;;5105428;27;61773;-76
2022/08/18 05:48:00;;;;;;;;;9.75;8.75;;;;;;;;5104397;27;62686;-75
2022/08/18 05:50:26;;;;;;;;;9.75;8.25;;;;;;;;5102650;27;62270;-74
2022/08/18 05:52:54;;;;;;;;;7.75;7.75;;;;;;;;5103146;27;61869;-75
2022/08/18 05:58:15;;;;;;;;;10.00;8.25;;;;;;;;5097026;27;61790;-74
2022/08/18 06:00:42;;;;;;;;;10.00;9.00;;;;;;;;5105029;27;61785;-74
2022/08/18 06:03:13;;;;;;;;;8.00;7.50;;;;;;;;5104778;27;61884;-74
2022/08/18 06:05:56;;;;;;;;;9.25;8.00;;;;;;;;5103225;27;61766;-74
2022/08/18 06:08:28;;;;;;;;;9.25;9.25;;;;;;;;5102809;27;63721;-74
2022/08/18 06:10:53;;;;;;;;;15.00;11.00;;;;;;;;5104832;27;61852;-74
2022/08/18 06:13:20;;;;;;;;;12.25;9.50;;;;;;;;5104392;27;62031;-74
2022/08/18 06:16:04;;;;;;;;;13.00;11.00;;;;;;;;5105089;27;61721;-74
2022/08/18 06:18:44;;;;;;;;;11.00;8.75;;;;;;;;5103779;27;62037;-74
2022/08/18 06:21:28;;;;;;;;;11.50;11.50;;;;;;;;5104650;27;62103;-74
2022/08/18 06:23:59;;;;;;;;;12.50;10.25;;;;;;;;5104364;27;61883;-74
2022/08/18 06:26:25;;;;;;;;;14.75;10.75;;;;;;;;5104419;27;61701;-74
2022/08/18 06:28:56;;;;;;;;;11.75;10.00;;;;;;;;5103869;27;61852;-74
2022/08/18 06:31:21;;;;;;;;;10.75;10.00;;;;;;;;5104588;27;61978;-74
2022/08/18 06:34:02;;;;;;;;;13.50;9.25;;;;;;;;5104226;27;61952;-74
2022/08/18 06:36:42;;;;;;;;;9.75;8.50;;;;;;;;5091665;27;62019;-74
2022/08/18 06:39:15;;;;;;;;;14.00;11.75;;;;;;;;5093284;27;62060;-74
2022/08/18 06:41:45;;;;;;;;;11.25;11.25;;;;;;;;5103593;27;61744;-74
2022/08/18 06:44:12;;;;;;;;;13.50;10.00;;;;;;;;5099971;27;61665;-75
2022/08/18 06:46:55;;;;;;;;;14.75;12.25;;;;;;;;5091972;27;62392;-74
2022/08/18 06:49:30;;;;;;;;;15.50;11.00;;;;;;;;5100804;27;65103;-74
2022/08/18 06:51:55;;;;;;;;;17.25;13.25;;;;;;;;5103815;27;61992;-74
2022/08/18 06:54:20;;;;;;;;;12.25;12.25;;;;;;;;5103520;27;61746;-74
2022/08/18 06:56:48;;;;;;;;;11.50;10.50;;;;;;;;5103454;27;61746;-74
2022/08/18 06:59:22;;;;;;;;;16.00;13.25;;;;;;;;5101996;27;64180;-74
2022/08/18 07:01:52;;;;;;;;;16.25;13.50;;;;;;;;5100330;27;62040;-74
2022/08/18 07:04:38;;;;;;;;;19.25;13.75;;;;;;;;5102526;27;61717;-74
2022/08/18 07:07:19;;;;;;;;;20.50;15.25;;;;;;;;5104174;27;61945;-74
2022/08/18 07:09:45;;;;;;;;;16.75;14.00;;;;;;;;5103608;27;62636;-74
2022/08/18 07:12:17;;;;;;;;;16.75;15.25;;;;;;;;5103064;27;61840;-74
2022/08/18 07:14:47;;;;;;;;;21.50;16.50;;;;;;;;5102481;27;61974;-74
2022/08/18 07:17:17;;;;;;;;;24.00;19.75;;;;;;;;5103466;27;61717;-74
2022/08/18 07:19:42;;;;;;;;;21.75;20.75;;;;;;;;5102665;27;62867;-74
2022/08/18 07:22:17;;;;;;;;;20.00;15.50;;;;;;;;5103605;27;61754;-74
2022/08/18 07:24:49;;;;;;;;;20.50;17.50;;;;;;;;5101781;27;61954;-73
2022/08/18 07:27:18;;;;;;;;;17.25;17.00;;;;;;;;5103350;27;61848;-74
2022/08/18 07:30:05;;;;;;;;;18.75;16.00;;;;;;;;5103237;27;61829;-74
2022/08/18 07:32:48;;;;;;;;;20.25;16.00;;;;;;;;5101423;27;61846;-74
2022/08/18 07:35:16;;;;;;;;;25.50;21.25;;;;;;;;5101861;27;61847;-74
2022/08/18 07:37:49;;;;;;;;;23.00;16.00;;;;;;;;5103443;27;61873;-73
2022/08/18 07:40:31;;;;;;;;;31.25;25.00;;;;;;;;5102875;27;62115;-74
2022/08/18 07:43:12;;;;;;;;;22.75;20.75;;;;;;;;5100297;27;61886;-74
2022/08/18 07:45:43;;;;;;;;;26.25;22.75;;;;;;;;5094892;27;61754;-74
2022/08/18 07:48:14;;;;;;;;;25.00;25.00;;;;;;;;5103571;27;61844;-74
2022/08/18 07:50:46;;;;;;;;;26.25;22.00;;;;;;;;5094007;27;63820;-74
2022/08/18 07:53:28;;;;;;;;;23.75;18.00;;;;;;;;5080834;28;61820;-74
2022/08/18 07:55:58;;;;;;;;;26.25;21.50;;;;;;;;5082811;27;61761;-74
2022/08/18 07:58:33;;;;;;;;;23.00;16.75;;;;;;;;5082652;27;61926;-74
2022/08/18 08:01:11;;;;;;;;;24.50;19.50;;;;;;;;5081837;27;62896;-74
2022/08/18 08:03:37;;;;;;;;;30.50;23.50;;;;;;;;5082585;27;61848;-74
2022/08/18 08:06:20;;;;;;;;;30.25;24.00;;;;;;;;5082759;28;61901;-74
2022/08/18 08:09:00;;;;;;;;;26.00;19.25;;;;;;;;5082867;28;61915;-74
2022/08/18 08:11:43;;;;;;;;;23.25;21.50;;;;;;;;5113988;27;64782;-74
2022/08/18 08:14:16;;;;;;;;;22.00;20.00;;;;;;;;5082494;28;61991;-74
2022/08/18 08:16:50;;;;;;;;;31.00;17.50;;;;;;;;5082411;28;61861;-74
2022/08/18 08:19:24;;;;;;;;;32.50;22.00;;;;;;;;5082401;28;61811;-74
2022/08/18 08:21:57;;;;;;;;;25.25;22.25;;;;;;;;5080490;28;63616;-74
2022/08/18 08:24:43;;;;;;;;;25.00;19.50;;;;;;;;5082063;27;61832;-74
2022/08/18 08:27:14;;;;;;;;;31.50;22.50;;;;;;;;5082236;27;61766;-74
2022/08/18 08:30:03;;;;;;;;;28.75;22.00;;;;;;;;5081928;27;61857;-74
2022/08/18 08:32:48;;;;;;;;;28.00;23.75;;;;;;;;5074398;28;62050;-74
2022/08/18 08:35:16;;;;;;;;;25.50;21.75;;;;;;;;5118759;27;61783;-74
2022/08/18 08:37:44;;;;;;;;;25.25;22.00;;;;;;;;5085542;28;61656;-74
2022/08/18 08:40:18;;;;;;;;;26.50;21.25;;;;;;;;5099482;27;62058;-74
2022/08/18 08:42:51;;;;;;;;;22.75;19.75;;;;;;;;5103889;27;63658;-74
2022/08/18 08:45:29;;;;;;;;;22.25;19.00;;;;;;;;5104186;27;62087;-74
2022/08/18 08:48:13;;;;;;;;;23.50;18.00;;;;;;;;5106078;27;61779;-74
2022/08/18 08:50:52;;;;;;;;;20.75;17.25;;;;;;;;5106100;27;61730;-74
2022/08/18 08:53:28;;;;;;;;;25.00;22.50;;;;;;;;5104815;27;61915;-74
2022/08/18 08:55:55;;;;;;;;;25.75;20.00;;;;;;;;5104764;27;62148;-74
2022/08/18 08:58:28;;;;;;;;;18.75;16.50;;;;;;;;5105339;27;61887;-74
2022/08/18 09:00:54;;;;;;;;;19.75;17.50;;;;;;;;5105988;27;61766;-73
2022/08/18 09:03:38;;;;;;;;;24.50;18.25;;;;;;;;5103970;27;64756;-74
2022/08/18 09:06:22;;;;;;;;;26.00;20.25;;;;;;;;5105880;27;62012;-74
2022/08/18 09:08:54;;;;;;;;;29.00;22.75;;;;;;;;5105852;27;61823;-74
2022/08/18 09:11:26;;;;;;;;;26.25;21.50;;;;;;;;5105614;27;62008;-74
2022/08/18 09:14:10;;;;;;;;;27.75;22.25;;;;;;;;5103199;27;64071;-74
2022/08/18 09:16:41;;;;;;;;;23.25;19.00;;;;;;;;5105429;27;61710;-74
2022/08/18 09:19:06;;;;;;;;;23.25;19.00;;;;;;;;5105720;27;61863;-74
2022/08/18 09:21:50;;;;;;;;;25.00;22.00;;;;;;;;5104305;27;61899;-74
2022/08/18 09:24:24;;;;;;;;;25.75;20.25;;;;;;;;5104160;27;62111;-74
2022/08/18 09:26:50;;;;;;;;;16.00;13.75;;;;;;;;5104617;27;61990;-74
2022/08/18 09:29:22;;;;;;;;;24.25;19.50;;;;;;;;5105586;27;61812;-74
2022/08/18 09:31:47;;;;;;;;;20.00;17.25;;;;;;;;5104322;27;62279;-74
2022/08/18 09:34:31;;;;;;;;;26.00;20.25;;;;;;;;5104841;27;63031;-74
2022/08/18 09:37:19;;;;;;;;;25.00;19.50;;;;;;;;5104097;27;62023;-74
2022/08/18 09:42:42;;;;;;;;;21.25;18.25;;;;;;;;5103971;27;61844;-74
2022/08/18 09:45:10;;;;;;;;;25.75;20.00;;;;;;;;5103094;27;64703;-74
2022/08/18 09:47:36;;;;;;;;;24.25;19.50;;;;;;;;5103555;27;61742;-74
2022/08/18 09:50:04;;;;;;;;;16.00;16.00;;;;;;;;5105454;27;61847;-74
2022/08/18 09:52:32;;;;;;;;;23.00;18.00;;;;;;;;5105382;27;62068;-74
2022/08/18 09:54:57;;;;;;;;;20.50;18.00;;;;;;;;5104075;27;62954;-74
2022/08/18 09:57:27;;;;;;;;;23.00;15.25;;;;;;;;5104073;27;61702;-74
2022/08/18 09:59:52;;;;;;;;;21.00;18.50;;;;;;;;5103863;27;61854;-74
2022/08/18 10:02:34;;;;;;;;;21.25;17.00;;;;;;;;5105157;27;61781;-74
2022/08/18 10:05:15;;;;;;;;;24.00;17.00;;;;;;;;5104562;27;61844;-74
2022/08/18 10:07:44;;;;;;;;;27.75;22.25;;;;;;;;5104751;27;62086;-74
2022/08/18 10:10:09;;;;;;;;;16.75;16.00;;;;;;;;5104935;27;61864;-73
2022/08/18 10:12:34;;;;;;;;;33.50;21.00;;;;;;;;5102140;27;61950;-74
2022/08/18 10:15:19;;;;;;;;;18.25;17.00;;;;;;;;5102919;27;63979;-74
2022/08/18 10:17:44;;;;;;;;;20.00;19.50;;;;;;;;5104619;27;61958;-73
2022/08/18 10:20:37;;;;;;;;;17.33;15.67;;;;;;;;5103160;27;61870;-74
2022/08/18 10:23:04;;;;;;;;;21.25;17.25;;;;;;;;5103469;27;62025;-74
2022/08/18 10:25:37;;;;;;;;;20.00;19.25;;;;;;;;5103315;27;61780;-74
2022/08/18 10:28:04;;;;;;;;;20.33;18.33;;;;;;;;5104453;27;61649;-74
2022/08/18 10:30:32;;;;;;;;;19.75;17.25;;;;;;;;5102991;27;61843;-74
2022/08/18 10:32:59;;;;;;;;;15.67;10.67;;;;;;;;5104646;27;62040;-74
2022/08/18 10:35:33;;;;;;;;;14.67;9.67;;;;;;;;5103957;27;61855;-74
2022/08/18 10:38:01;;;;;;;;;12.33;7.67;;;;;;;;5103996;27;61734;-74
2022/08/18 10:40:26;;;;;;;;;12.67;12.67;;;;;;;;5096976;27;61960;-74
2022/08/18 10:43:09;;;;;;;;;13.33;11.00;;;;;;;;5102304;27;61992;-74
2022/08/18 10:45:35;;;;;;;;;20.67;15.33;;;;;;;;5102374;27;63821;-74
2022/08/18 10:48:03;;;;;;;;;17.33;13.00;;;;;;;;5104204;27;61947;-74
2022/08/18 10:50:32;;;;;;;;;16.33;12.67;;;;;;;;5104116;27;61815;-74
2022/08/18 10:53:08;;;;;;;;;16.00;11.33;;;;;;;;5102338;27;62119;-74
2022/08/18 10:55:47;;;;;;;;;14.33;9.67;;;;;;;;5100725;27;63726;-74
2022/08/18 10:58:12;;;;;;;;;14.67;11.67;;;;;;;;5103850;27;61732;-74
2022/08/18 11:00:47;;;;;;;;;13.00;9.67;;;;;;;;5102669;27;61696;-74
2022/08/18 11:03:15;;;;;;;;;12.00;11.00;;;;;;;;5104608;27;61826;-74
2022/08/18 11:05:41;;;;;;;;;13.33;8.67;;;;;;;;5103073;27;61776;-74
2022/08/18 11:08:11;;;;;;;;;12.67;11.33;;;;;;;;5103890;27;61846;-74
2022/08/18 11:10:39;;;;;;;;;10.33;9.00;;;;;;;;5103655;27;61896;-74
2022/08/18 11:13:15;;;;;;;;;8.33;8.33;;;;;;;;5103757;27;61989;-74
2022/08/18 11:15:46;;;;;;;;;10.00;8.33;;;;;;;;5101681;27;63967;-74
2022/08/18 11:18:15;;;;;;;;;9.33;8.67;;;;;;;;5102291;27;61811;-74
2022/08/18 11:20:42;;;;;;;;;11.67;8.33;;;;;;;;5103670;27;61832;-74
2022/08/18 11:23:11;;;;;;;;;9.67;8.33;;;;;;;;5101683;27;61831;-74
2022/08/18 11:25:38;;;;;;;;;12.00;8.00;;;;;;;;5102948;27;63157;-74
2022/08/18 11:28:13;;;;;;;;;10.33;9.00;;;;;;;;5103273;27;61920;-74
2022/08/18 11:30:40;;;;;;;;;12.67;10.00;;;;;;;;5103545;27;61702;-74
2022/08/18 11:33:06;;;;;;;;;12.00;9.00;;;;;;;;5103828;27;61963;-74
2022/08/18 11:35:33;;;;;;;;;10.00;8.33;;;;;;;;5102831;27;61778;-74
2022/08/18 11:38:00;;;;;;;;;12.67;7.33;;;;;;;;5102671;27;62032;-74
2022/08/18 11:40:33;;;;;;;;;9.00;8.67;;;;;;;;5096651;27;61976;-74
2022/08/18 11:42:58;;;;;;;;;16.00;8.67;;;;;;;;5101846;27;61769;-74
2022/08/18 11:45:26;;;;;;;;;8.00;8.00;;;;;;;;5102807;27;62949;-75
2022/08/18 11:47:58;;;;;;;;;10.00;8.00;;;;;;;;5103294;27;62233;-74
2022/08/18 11:50:29;;;;;;;;;7.00;5.33;;;;;;;;5102033;27;62003;-74
2022/08/18 11:52:55;;;;;;;;;9.67;6.67;;;;;;;;5101654;27;61904;-74
2022/08/18 11:55:32;;;;;;;;;12.67;9.00;;;;;;;;5101222;27;62805;-74
2022/08/18 11:57:58;;;;;;;;;5.67;5.33;;;;;;;;5101552;27;61860;-74
2022/08/18 12:00:36;;;;;;;;;9.00;7.00;;;;;;;;5103398;27;61784;-74
2022/08/18 12:03:06;;;;;;;;;8.00;6.67;;;;;;;;5103260;27;61845;-74
2022/08/18 12:05:45;;;;;;;;;5.67;5.33;;;;;;;;5102676;27;62693;-74
2022/08/18 12:08:34;;;;;;;;;9.00;7.00;;;;;;;;5106184;27;61980;-74
2022/08/18 12:11:13;;;;;;;;;11.67;8.33;;;;;;;;5106986;27;61980;-74
2022/08/18 12:13:40;;;;;;;;;7.00;5.00;;;;;;;;5105223;27;61821;-74
2022/08/18 12:16:10;;;;;;;;;9.67;6.00;;;;;;;;5104446;27;62912;-74
2022/08/18 12:18:35;;;;;;;;;10.67;8.67;;;;;;;;5106558;27;61686;-74
2022/08/18 12:21:00;;;;;;;;;6.00;6.00;;;;;;;;5106223;27;61662;-74
2022/08/18 12:23:26;;;;;;;;;9.00;9.00;;;;;;;;5106371;27;61730;-74
2022/08/18 12:25:52;;;;;;;;;6.67;6.67;;;;;;;;5104439;27;63651;-74
2022/08/18 12:28:18;;;;;;;;;6.67;5.00;;;;;;;;5104937;27;62169;-74
2022/08/18 12:30:43;;;;;;;;;7.33;7.33;;;;;;;;5105363;27;61799;-74
2022/08/18 12:33:08;;;;;;;;;7.00;6.00;;;;;;;;5106754;27;61752;-74
2022/08/18 12:35:33;;;;;;;;;6.00;6.00;;;;;;;;5104087;27;65033;-74
2022/08/18 12:37:59;;;;;;;;;9.00;8.00;;;;;;;;5105934;27;61775;-74
2022/08/18 12:40:24;;;;;;;;;7.00;5.67;;;;;;;;5099667;27;61892;-74
2022/08/18 12:42:49;;;;;;;;;13.67;9.00;;;;;;;;5106164;27;61900;-74
2022/08/18 12:45:15;;;;;;;;;6.33;6.33;;;;;;;;5104118;27;64023;-74
2022/08/18 12:47:40;;;;;;;;;9.67;7.00;;;;;;;;5106337;27;61959;-74
2022/08/18 12:50:06;;;;;;;;;7.33;6.00;;;;;;;;5104205;27;61776;-74
2022/08/18 12:52:31;;;;;;;;;8.67;7.67;;;;;;;;5104895;27;61892;-74
2022/08/18 12:54:57;;;;;;;;;6.00;6.00;;;;;;;;5105122;27;61938;-74
2022/08/18 12:57:23;;;;;;;;;7.00;5.00;;;;;;;;5105537;27;62015;-74
2022/08/18 12:59:48;;;;;;;;;7.33;5.67;;;;;;;;5106181;27;61731;-75
2022/08/18 13:02:14;;;;;;;;;6.00;5.00;;;;;;;;5104602;27;61780;-74
2022/08/18 13:04:40;;;;;;;;;4.00;4.00;;;;;;;;5105135;27;63070;-74
2022/08/18 13:07:06;;;;;;;;;6.00;5.00;;;;;;;;5105711;27;61864;-75
2022/08/18 13:09:33;;;;;;;;;7.00;6.00;;;;;;;;5106257;27;61749;-74
2022/08/18 13:11:58;;;;;;;;;4.33;4.33;;;;;;;;5105462;27;62072;-75
2022/08/18 13:14:23;;;;;;;;;9.00;7.67;;;;;;;;5105222;27;61729;-75
2022/08/18 13:16:50;;;;;;;;;7.33;7.33;;;;;;;;5105592;27;61765;-74
2022/08/18 13:19:15;;;;;;;;;5.33;5.33;;;;;;;;5103120;27;61951;-74
2022/08/18 13:21:41;;;;;;;;;6.00;5.33;;;;;;;;5105938;27;61934;-74
2022/08/18 13:24:06;;;;;;;;;7.00;6.00;;;;;;;;5104355;27;63063;-75
2022/08/18 13:26:34;;;;;;;;;12.00;7.33;;;;;;;;5105501;27;61794;-75
2022/08/18 13:29:00;;;;;;;;;7.00;5.67;;;;;;;;5105551;27;61680;-74
2022/08/18 13:31:26;;;;;;;;;9.00;6.67;;;;;;;;5105712;27;61694;-74
2022/08/18 13:33:52;;;;;;;;;8.33;6.67;;;;;;;;5102925;27;63532;-75
2022/08/18 13:36:17;;;;;;;;;7.00;6.00;;;;;;;;5105432;27;61746;-75
2022/08/18 13:38:42;;;;;;;;;7.00;7.00;;;;;;;;5101275;27;62087;-75
2022/08/18 13:41:08;;;;;;;;;5.00;5.00;;;;;;;;5105226;27;62165;-75
2022/08/18 13:43:34;;;;;;;;;8.33;6.33;;;;;;;;5104503;27;61874;-75
2022/08/18 13:46:00;;;;;;;;;5.33;5.00;;;;;;;;5105148;27;61749;-75
2022/08/18 13:48:27;;;;;;;;;5.00;5.00;;;;;;;;5104789;27;61809;-75
2022/08/18 13:50:53;;;;;;;;;5.00;5.00;;;;;;;;5105521;27;61797;-74
2022/08/18 13:53:19;;;;;;;;;5.67;4.00;;;;;;;;5103954;27;63587;-74
2022/08/18 13:55:44;;;;;;;;;6.00;5.00;;;;;;;;5105281;27;61873;-75
2022/08/18 13:58:11;;;;;;;;;5.33;5.33;;;;;;;;5104469;27;61909;-74
2022/08/18 14:00:36;;;;;;;;;6.00;4.67;;;;;;;;5105273;27;61748;-75
2022/08/18 14:03:02;;;;;;;;;5.00;5.00;;;;;;;;5102567;27;64552;-75
2022/08/18 14:05:27;;;;;;;;;5.67;4.33;;;;;;;;5103728;27;61891;-75
2022/08/18 14:07:53;;;;;;;;;6.67;5.67;;;;;;;;5105019;27;61889;-75
2022/08/18 14:10:18;;;;;;;;;4.00;4.00;;;;;;;;5105028;27;61734;-75
2022/08/18 14:12:44;;;;;;;;;4.67;4.67;;;;;;;;5103842;27;61889;-75
2022/08/18 14:15:11;;;;;;;;;4.33;4.33;;;;;;;;5104742;27;61741;-74
2022/08/18 14:17:37;;;;;;;;;4.00;2.67;;;;;;;;5104511;27;62070;-75
2022/08/18 14:28:18;;;;;;;;;6.67;5.67;;;;;;;;5104213;27;61765;-74
2022/08/18 14:30:45;;;;;;;;;7.00;6.00;;;;;;;;5104703;27;61844;-75
2022/08/18 14:33:13;;;;;;;;;4.00;4.00;;;;;;;;5103325;27;61738;-75
2022/08/18 14:35:39;;;;;;;;;3.67;3.67;;;;;;;;5103151;27;61843;-75
2022/08/18 14:38:05;;;;;;;;;5.00;5.00;;;;;;;;5104208;27;61990;-74
2022/08/18 14:40:32;;;;;;;;;5.33;4.00;;;;;;;;5104594;27;61844;-74
2022/08/18 14:42:57;;;;;;;;;5.00;5.00;;;;;;;;5101995;27;65016;-75
2022/08/18 14:45:24;;;;;;;;;8.67;4.33;;;;;;;;5102773;27;61990;-74
2022/08/18 14:47:52;;;;;;;;;5.33;5.00;;;;;;;;5103837;27;61774;-75
2022/08/18 14:50:18;;;;;;;;;8.00;5.00;;;;;;;;5104425;27;61665;-75
2022/08/18 14:52:44;;;;;;;;;7.33;6.00;;;;;;;;5102309;27;62838;-75
2022/08/18 14:55:10;;;;;;;;;6.00;5.67;;;;;;;;5103655;27;61798;-75
2022/08/18 14:57:36;;;;;;;;;4.67;4.67;;;;;;;;5102304;27;61990;-75
2022/08/18 15:00:03;;;;;;;;;5.33;5.33;;;;;;;;5104482;27;62274;-75
2022/08/18 15:02:28;;;;;;;;;6.33;5.33;;;;;;;;5103170;27;61700;-75
2022/08/18 15:04:53;;;;;;;;;6.33;5.00;;;;;;;;5102744;27;61892;-74